sensor_id;sensor_type;location;lat;lon;timestamp;pressure;altitude;pressure_sealevel;temperature;humidity
48790;BME280;41718;51.980;5.734;2023-05-09T00:02:58;101390.25;;;14.31;100.00
48790;BME280;41718;51.980;5.734;2023-05-09T00:08:01;101382.34;;;14.23;100.00
48790;BME280;41718;51.980;5.734;2023-05-09T00:13:03;101371.13;;;14.27;100.00
48790;BME280;41718;51.980;5.734;2023-05-09T00:18:05;101368.56;;;14.30;100.00
48790;BME280;41718;51.980;5.734;2023-05-09T00:23:06;101366.78;;;14.25;100.00
48790;BME280;41718;51.980;5.734;2023-05-09T00:28:08;101357.19;;;14.21;100.00
48790;BME280;41718;51.980;5.734;2023-05-09T00:33:09;101347.66;;;14.23;100.00
48790;BME280;41718;51.980;5.734;2023-05-09T00:38:12;101356.28;;;14.16;100.00
48790;BME280;41718;51.980;5.734;2023-05-09T00:43:13;101356.28;;;14.17;100.00
48790;BME280;41718;51.980;5.734;2023-05-09T00:48:15;101351.13;;;14.20;100.00
48790;BME280;41718;51.980;5.734;2023-05-09T00:53:18;101337.25;;;14.20;100.00
48790;BME280;41718;51.980;5.734;2023-05-09T00:58:19;101339.84;;;14.20;100.00
48790;BME280;41718;51.980;5.734;2023-05-09T01:03:21;101330.25;;;14.14;100.00
48790;BME280;41718;51.980;5.734;2023-05-09T01:08:36;101331.16;;;14.21;100.00
48790;BME280;41718;51.980;5.734;2023-05-09T01:25:11;101312.91;;;14.16;100.00
48790;BME280;41718;51.980;5.734;2023-05-09T01:30:17;101295.59;;;14.20;100.00
48790;BME280;41718;51.980;5.734;2023-05-09T01:35:22;101298.19;;;14.18;100.00
48790;BME280;41718;51.980;5.734;2023-05-09T01:40:29;101287.78;;;14.23;100.00
48790;BME280;41718;51.980;5.734;2023-05-09T01:45:32;101296.47;;;14.19;100.00
48790;BME280;41718;51.980;5.734;2023-05-09T01:50:34;101274.78;;;14.18;100.00
48790;BME280;41718;51.980;5.734;2023-05-09T01:55:36;101267.81;;;14.17;100.00
48790;BME280;41718;51.980;5.734;2023-05-09T02:00:40;101256.50;;;14.11;100.00
48790;BME280;41718;51.980;5.734;2023-05-09T02:05:41;101254.72;;;14.06;100.00
48790;BME280;41718;51.980;5.734;2023-05-09T02:10:45;101249.50;;;14.06;100.00
48790;BME280;41718;51.980;5.734;2023-05-09T02:15:46;101245.19;;;14.05;100.00
48790;BME280;41718;51.980;5.734;2023-05-09T02:20:48;101234.72;;;13.96;100.00
48790;BME280;41718;51.980;5.734;2023-05-09T02:25:49;101249.47;;;13.97;100.00
48790;BME280;41718;51.980;5.734;2023-05-09T02:30:52;101240.78;;;13.97;100.00
48790;BME280;41718;51.980;5.734;2023-05-09T02:35:55;101227.75;;;13.92;100.00
48790;BME280;41718;51.980;5.734;2023-05-09T02:40:57;101229.44;;;13.87;100.00
48790;BME280;41718;51.980;5.734;2023-05-09T02:45:58;101211.22;;;13.86;100.00
48790;BME280;41718;51.980;5.734;2023-05-09T02:51:00;101219.00;;;13.81;100.00
48790;BME280;41718;51.980;5.734;2023-05-09T02:56:02;101204.25;;;13.82;100.00
48790;BME280;41718;51.980;5.734;2023-05-09T03:01:04;101193.84;;;13.82;100.00
48790;BME280;41718;51.980;5.734;2023-05-09T03:06:05;101170.44;;;13.80;100.00
48790;BME280;41718;51.980;5.734;2023-05-09T03:11:07;101163.50;;;13.81;100.00
48790;BME280;41718;51.980;5.734;2023-05-09T03:16:12;101158.31;;;13.81;100.00
48790;BME280;41718;51.980;5.734;2023-05-09T03:21:13;101154.81;;;13.77;100.00
48790;BME280;41718;51.980;5.734;2023-05-09T03:26:15;101152.25;;;13.80;100.00
48790;BME280;41718;51.980;5.734;2023-05-09T03:31:16;101141.81;;;13.77;100.00
48790;BME280;41718;51.980;5.734;2023-05-09T03:36:18;101138.31;;;13.72;100.00
48790;BME280;41718;51.980;5.734;2023-05-09T03:41:20;101140.91;;;13.70;100.00
48790;BME280;41718;51.980;5.734;2023-05-09T03:46:21;101134.81;;;13.67;100.00
48790;BME280;41718;51.980;5.734;2023-05-09T03:51:23;101131.34;;;13.66;100.00
48790;BME280;41718;51.980;5.734;2023-05-09T03:56:25;101127.00;;;13.65;100.00
48790;BME280;41718;51.980;5.734;2023-05-09T04:01:26;101120.06;;;13.64;100.00
48790;BME280;41718;51.980;5.734;2023-05-09T04:06:28;101116.59;;;13.64;100.00
48790;BME280;41718;51.980;5.734;2023-05-09T04:11:30;101114.00;;;13.65;100.00
48790;BME280;41718;51.980;5.734;2023-05-09T04:16:32;101118.28;;;13.60;100.00
48790;BME280;41718;51.980;5.734;2023-05-09T04:21:33;101125.25;;;13.64;100.00
48790;BME280;41718;51.980;5.734;2023-05-09T04:26:35;101126.13;;;13.62;100.00
48790;BME280;41718;51.980;5.734;2023-05-09T04:31:38;101122.66;;;13.63;100.00
48790;BME280;41718;51.980;5.734;2023-05-09T04:36:40;101113.09;;;13.60;100.00
48790;BME280;41718;51.980;5.734;2023-05-09T04:41:42;101120.03;;;13.58;100.00
48790;BME280;41718;51.980;5.734;2023-05-09T04:46:44;101107.06;;;13.66;100.00
48790;BME280;41718;51.980;5.734;2023-05-09T04:51:46;101111.44;;;13.68;100.00
48790;BME280;41718;51.980;5.734;2023-05-09T04:56:48;101113.16;;;13.71;100.00
48790;BME280;41718;51.980;5.734;2023-05-09T05:01:50;101108.00;;;13.77;100.00
48790;BME280;41718;51.980;5.734;2023-05-09T05:06:52;101108.91;;;13.82;100.00
48790;BME280;41718;51.980;5.734;2023-05-09T05:11:54;101096.78;;;13.86;100.00
48790;BME280;41718;51.980;5.734;2023-05-09T05:17:03;101091.63;;;13.95;100.00
48790;BME280;41718;51.980;5.734;2023-05-09T05:22:04;101083.91;;;14.09;100.00
48790;BME280;41718;51.980;5.734;2023-05-09T05:27:06;101084.81;;;14.23;100.00
48790;BME280;41718;51.980;5.734;2023-05-09T05:32:07;101077.06;;;14.40;100.00
48790;BME280;41718;51.980;5.734;2023-05-09T05:37:09;101067.56;;;14.51;100.00
48790;BME280;41718;51.980;5.734;2023-05-09T05:42:10;101067.59;;;14.58;100.00
48790;BME280;41718;51.980;5.734;2023-05-09T05:47:12;101071.06;;;14.48;100.00
48790;BME280;41718;51.980;5.734;2023-05-09T05:52:14;101063.16;;;14.41;100.00
48790;BME280;41718;51.980;5.734;2023-05-09T05:57:15;101061.47;;;14.41;100.00
48790;BME280;41718;51.980;5.734;2023-05-09T06:02:17;101052.81;;;14.50;100.00
48790;BME280;41718;51.980;5.734;2023-05-09T06:07:19;101047.59;;;14.51;100.00
48790;BME280;41718;51.980;5.734;2023-05-09T06:12:20;101038.09;;;14.58;100.00
48790;BME280;41718;51.980;5.734;2023-05-09T06:17:22;101022.47;;;14.66;100.00
48790;BME280;41718;51.980;5.734;2023-05-09T06:22:23;101016.38;;;14.50;100.00
48790;BME280;41718;51.980;5.734;2023-05-09T06:27:25;101005.13;;;14.65;100.00
48790;BME280;41718;51.980;5.734;2023-05-09T06:32:26;101005.13;;;14.92;100.00
48790;BME280;41718;51.980;5.734;2023-05-09T06:37:32;100987.66;;;15.31;100.00
48790;BME280;41718;51.980;5.734;2023-05-09T06:42:34;100983.31;;;15.36;100.00
48790;BME280;41718;51.980;5.734;2023-05-09T06:47:35;100977.31;;;15.16;100.00
48790;BME280;41718;51.980;5.734;2023-05-09T06:52:37;100975.50;;;15.31;100.00
48790;BME280;41718;51.980;5.734;2023-05-09T06:57:38;100971.19;;;15.18;100.00
48790;BME280;41718;51.980;5.734;2023-05-09T07:02:43;100952.94;;;15.33;100.00
48790;BME280;41718;51.980;5.734;2023-05-09T07:07:45;100948.59;;;15.29;100.00
48790;BME280;41718;51.980;5.734;2023-05-09T07:12:46;100954.69;;;15.19;100.00
48790;BME280;41718;51.980;5.734;2023-05-09T07:17:48;100945.13;;;15.27;100.00
48790;BME280;41718;51.980;5.734;2023-05-09T07:22:49;100944.22;;;15.31;100.00
48790;BME280;41718;51.980;5.734;2023-05-09T07:27:51;100950.34;;;15.20;100.00
48790;BME280;41718;51.980;5.734;2023-05-09T07:32:52;100938.16;;;15.34;100.00
48790;BME280;41718;51.980;5.734;2023-05-09T07:37:54;100923.34;;;15.41;100.00
48790;BME280;41718;51.980;5.734;2023-05-09T07:42:55;100928.50;;;15.63;100.00
48790;BME280;41718;51.980;5.734;2023-05-09T07:47:57;100925.00;;;15.58;100.00
48790;BME280;41718;51.980;5.734;2023-05-09T07:52:58;100920.69;;;15.56;100.00
48790;BME280;41718;51.980;5.734;2023-05-09T07:58:00;100921.53;;;15.64;100.00
48790;BME280;41718;51.980;5.734;2023-05-09T08:03:02;100912.78;;;15.79;100.00
48790;BME280;41718;51.980;5.734;2023-05-09T08:08:04;100896.22;;;15.81;100.00
48790;BME280;41718;51.980;5.734;2023-05-09T08:13:05;100893.66;;;15.75;100.00
48790;BME280;41718;51.980;5.734;2023-05-09T08:18:07;100898.88;;;15.74;100.00
48790;BME280;41718;51.980;5.734;2023-05-09T08:23:08;100887.59;;;15.72;100.00
48790;BME280;41718;51.980;5.734;2023-05-09T08:28:10;100877.19;;;15.64;100.00
48790;BME280;41718;51.980;5.734;2023-05-09T08:33:11;100878.91;;;15.70;100.00
48790;BME280;41718;51.980;5.734;2023-05-09T08:38:13;100875.47;;;15.58;100.00
48790;BME280;41718;51.980;5.734;2023-05-09T08:43:15;100877.22;;;15.52;100.00
48790;BME280;41718;51.980;5.734;2023-05-09T08:48:21;100867.66;;;15.60;100.00
48790;BME280;41718;51.980;5.734;2023-05-09T08:53:23;100860.66;;;15.73;100.00
48790;BME280;41718;51.980;5.734;2023-05-09T08:58:24;100861.59;;;15.47;100.00
48790;BME280;41718;51.980;5.734;2023-05-09T09:03:26;100858.19;;;15.37;100.00
48790;BME280;41718;51.980;5.734;2023-05-09T09:08:28;100866.03;;;15.37;100.00
48790;BME280;41718;51.980;5.734;2023-05-09T09:13:30;100866.06;;;15.22;100.00
48790;BME280;41718;51.980;5.734;2023-05-09T09:18:33;100860.84;;;15.25;100.00
48790;BME280;41718;51.980;5.734;2023-05-09T09:23:38;100859.09;;;15.26;100.00
48790;BME280;41718;51.980;5.734;2023-05-09T09:28:41;100850.38;;;15.30;100.00
48790;BME280;41718;51.980;5.734;2023-05-09T09:33:43;100850.38;;;15.30;100.00
48790;BME280;41718;51.980;5.734;2023-05-09T09:38:44;100849.47;;;15.43;100.00
48790;BME280;41718;51.980;5.734;2023-05-09T09:43:46;100845.09;;;15.50;100.00
48790;BME280;41718;51.980;5.734;2023-05-09T09:48:48;100835.47;;;15.67;100.00
48790;BME280;41718;51.980;5.734;2023-05-09T09:53:53;100834.59;;;15.67;100.00
48790;BME280;41718;51.980;5.734;2023-05-09T09:59:10;100835.47;;;15.66;100.00
48790;BME280;41718;51.980;5.734;2023-05-09T10:04:14;100836.34;;;15.60;100.00
48790;BME280;41718;51.980;5.734;2023-05-09T10:09:17;100838.25;;;15.24;100.00
48790;BME280;41718;51.980;5.734;2023-05-09T10:14:23;100827.78;;;15.38;100.00
48790;BME280;41718;51.980;5.734;2023-05-09T10:19:26;100824.31;;;15.30;100.00
48790;BME280;41718;51.980;5.734;2023-05-09T10:24:34;100821.84;;;15.05;100.00
48790;BME280;41718;51.980;5.734;2023-05-09T10:29:44;100818.38;;;15.02;100.00
48790;BME280;41718;51.980;5.734;2023-05-09T10:34:49;100808.88;;;14.85;100.00
48790;BME280;41718;51.980;5.734;2023-05-09T10:39:52;100797.63;;;14.76;100.00
48790;BME280;41718;51.980;5.734;2023-05-09T10:44:56;100788.16;;;14.53;100.00
48790;BME280;41718;51.980;5.734;2023-05-09T10:49:58;100784.66;;;14.51;100.00
48790;BME280;41718;51.980;5.734;2023-05-09T10:55:01;100793.38;;;14.30;100.00
48790;BME280;41718;51.980;5.734;2023-05-09T11:00:05;100775.16;;;14.21;100.00
48790;BME280;41718;51.980;5.734;2023-05-09T11:05:15;100762.16;;;14.15;100.00
48790;BME280;41718;51.980;5.734;2023-05-09T11:10:17;100735.22;;;14.28;100.00
48790;BME280;41718;51.980;5.734;2023-05-09T11:15:19;100712.72;;;14.15;100.00
48790;BME280;41718;51.980;5.734;2023-05-09T11:20:26;100726.63;;;13.97;100.00
48790;BME280;41718;51.980;5.734;2023-05-09T11:25:28;100724.88;;;13.99;100.00
48790;BME280;41718;51.980;5.734;2023-05-09T11:30:40;100711.88;;;13.96;100.00
48790;BME280;41718;51.980;5.734;2023-05-09T11:35:42;100719.69;;;13.69;100.00
48790;BME280;41718;51.980;5.734;2023-05-09T11:40:44;100717.94;;;13.83;100.00
48790;BME280;41718;51.980;5.734;2023-05-09T11:45:45;100713.63;;;13.61;100.00
48790;BME280;41718;51.980;5.734;2023-05-09T11:50:47;100710.19;;;13.62;100.00
48790;BME280;41718;51.980;5.734;2023-05-09T11:55:49;100702.38;;;13.75;100.00
48790;BME280;41718;51.980;5.734;2023-05-09T12:00:51;100692.84;;;13.79;100.00
48790;BME280;41718;51.980;5.734;2023-05-09T12:05:53;100678.94;;;14.01;100.00
48790;BME280;41718;51.980;5.734;2023-05-09T12:11:06;100668.50;;;14.09;100.00
48790;BME280;41718;51.980;5.734;2023-05-09T12:16:08;100673.75;;;13.97;100.00
48790;BME280;41718;51.980;5.734;2023-05-09T12:21:10;100673.75;;;13.92;100.00
48790;BME280;41718;51.980;5.734;2023-05-09T12:26:12;100672.88;;;13.78;100.00
48790;BME280;41718;51.980;5.734;2023-05-09T12:31:15;100664.22;;;13.87;100.00
48790;BME280;41718;51.980;5.734;2023-05-09T12:36:17;100665.88;;;14.15;100.00
48790;BME280;41718;51.980;5.734;2023-05-09T12:41:18;100662.50;;;13.86;100.00
48790;BME280;41718;51.980;5.734;2023-05-09T12:46:37;100655.53;;;13.92;100.00
48790;BME280;41718;51.980;5.734;2023-05-09T12:51:47;100639.94;;;13.77;100.00
48790;BME280;41718;51.980;5.734;2023-05-09T12:56:50;100621.72;;;13.92;100.00
48790;BME280;41718;51.980;5.734;2023-05-09T13:01:58;100627.78;;;13.97;100.00
48790;BME280;41718;51.980;5.734;2023-05-09T13:07:00;100626.94;;;13.77;100.00
48790;BME280;41718;51.980;5.734;2023-05-09T13:12:02;100608.72;;;13.94;100.00
48790;BME280;41718;51.980;5.734;2023-05-09T13:17:08;100613.06;;;13.86;100.00
48790;BME280;41718;51.980;5.734;2023-05-09T13:22:10;100611.31;;;13.94;100.00
48790;BME280;41718;51.980;5.734;2023-05-09T13:27:12;100604.41;;;13.81;100.00
48790;BME280;41718;51.980;5.734;2023-05-09T13:32:14;100601.81;;;13.76;100.00
48790;BME280;41718;51.980;5.734;2023-05-09T13:37:15;100596.59;;;13.82;100.00
48790;BME280;41718;51.980;5.734;2023-05-09T13:42:17;100595.75;;;13.71;100.00
48790;BME280;41718;51.980;5.734;2023-05-09T13:47:19;100594.91;;;13.75;100.00
48790;BME280;41718;51.980;5.734;2023-05-09T13:52:21;100588.84;;;13.67;100.00
48790;BME280;41718;51.980;5.734;2023-05-09T13:57:23;100586.22;;;13.76;100.00
48790;BME280;41718;51.980;5.734;2023-05-09T14:02:24;100576.69;;;13.76;100.00
48790;BME280;41718;51.980;5.734;2023-05-09T14:07:26;100577.59;;;13.54;100.00
48790;BME280;41718;51.980;5.734;2023-05-09T14:12:28;100568.06;;;13.68;100.00
48790;BME280;41718;51.980;5.734;2023-05-09T14:17:29;100561.09;;;13.75;100.00
48790;BME280;41718;51.980;5.734;2023-05-09T14:22:31;100550.69;;;13.75;100.00
48790;BME280;41718;51.980;5.734;2023-05-09T14:27:32;100545.50;;;13.70;100.00
48790;BME280;41718;51.980;5.734;2023-05-09T14:32:37;100548.13;;;13.66;100.00
48790;BME280;41718;51.980;5.734;2023-05-09T14:37:38;100538.59;;;13.60;100.00
48790;BME280;41718;51.980;5.734;2023-05-09T14:42:41;100535.16;;;13.57;100.00
48790;BME280;41718;51.980;5.734;2023-05-09T14:47:44;100529.97;;;13.50;100.00
48790;BME280;41718;51.980;5.734;2023-05-09T14:52:47;100523.91;;;13.45;100.00
48790;BME280;41718;51.980;5.734;2023-05-09T14:57:48;100516.09;;;13.51;100.00
48790;BME280;41718;51.980;5.734;2023-05-09T15:02:50;100510.91;;;13.53;100.00
48790;BME280;41718;51.980;5.734;2023-05-09T15:07:51;100508.28;;;13.59;100.00
48790;BME280;41718;51.980;5.734;2023-05-09T15:12:53;100497.00;;;13.59;100.00
48790;BME280;41718;51.980;5.734;2023-05-09T15:17:56;100486.63;;;13.57;100.00
48790;BME280;41718;51.980;5.734;2023-05-09T15:22:57;100480.56;;;13.63;100.00
48790;BME280;41718;51.980;5.734;2023-05-09T15:27:59;100477.88;;;13.76;100.00
48790;BME280;41718;51.980;5.734;2023-05-09T15:33:00;100476.28;;;13.46;100.00
48790;BME280;41718;51.980;5.734;2023-05-09T15:38:02;100479.69;;;13.55;100.00
48790;BME280;41718;51.980;5.734;2023-05-09T15:43:04;100458.91;;;13.58;100.00
48790;BME280;41718;51.980;5.734;2023-05-09T15:48:08;100465.84;;;13.62;100.00
48790;BME280;41718;51.980;5.734;2023-05-09T15:53:10;100452.03;;;13.44;100.00
48790;BME280;41718;51.980;5.734;2023-05-09T15:58:11;100437.28;;;13.51;100.00
48790;BME280;41718;51.980;5.734;2023-05-09T16:03:14;100440.72;;;13.50;100.00
48790;BME280;41718;51.980;5.734;2023-05-09T16:08:15;100430.31;;;13.50;100.00
48790;BME280;41718;51.980;5.734;2023-05-09T16:13:17;100414.72;;;13.53;100.00
48790;BME280;41718;51.980;5.734;2023-05-09T16:18:19;100411.25;;;13.59;100.00
48790;BME280;41718;51.980;5.734;2023-05-09T16:23:22;100395.56;;;13.75;100.00
48790;BME280;41718;51.980;5.734;2023-05-09T16:28:23;100403.41;;;13.65;100.00
48790;BME280;41718;51.980;5.734;2023-05-09T16:33:28;100392.97;;;13.71;100.00
48790;BME280;41718;51.980;5.734;2023-05-09T16:38:29;100387.81;;;13.68;100.00
48790;BME280;41718;51.980;5.734;2023-05-09T16:43:31;100380.84;;;13.73;100.00
48790;BME280;41718;51.980;5.734;2023-05-09T16:48:32;100370.50;;;13.64;100.00
48790;BME280;41718;51.980;5.734;2023-05-09T16:53:34;100368.78;;;13.55;100.00
48790;BME280;41718;51.980;5.734;2023-05-09T16:58:36;100367.00;;;13.66;100.00
48790;BME280;41718;51.980;5.734;2023-05-09T17:03:38;100365.25;;;13.70;100.00
48790;BME280;41718;51.980;5.734;2023-05-09T17:08:40;100367.91;;;13.62;100.00
48790;BME280;41718;51.980;5.734;2023-05-09T17:13:41;100359.22;;;13.65;100.00
48790;BME280;41718;51.980;5.734;2023-05-09T17:18:44;100349.75;;;13.58;100.00
48790;BME280;41718;51.980;5.734;2023-05-09T17:23:47;100349.75;;;13.56;100.00
48790;BME280;41718;51.980;5.734;2023-05-09T17:28:49;100354.97;;;13.53;100.00
48790;BME280;41718;51.980;5.734;2023-05-09T17:33:50;100345.41;;;13.55;100.00
48790;BME280;41718;51.980;5.734;2023-05-09T17:38:52;100349.81;;;13.38;100.00
48790;BME280;41718;51.980;5.734;2023-05-09T17:43:53;100349.84;;;13.36;100.00
48790;BME280;41718;51.980;5.734;2023-05-09T17:48:57;100354.13;;;13.46;100.00
48790;BME280;41718;51.980;5.734;2023-05-09T17:53:59;100346.28;;;13.52;100.00
48790;BME280;41718;51.980;5.734;2023-05-09T17:59:01;100345.50;;;13.41;100.00
48790;BME280;41718;51.980;5.734;2023-05-09T18:04:03;100347.22;;;13.41;100.00
48790;BME280;41718;51.980;5.734;2023-05-09T18:09:04;100345.44;;;13.47;100.00
48790;BME280;41718;51.980;5.734;2023-05-09T18:14:06;100329.91;;;13.40;100.00
48790;BME280;41718;51.980;5.734;2023-05-09T18:19:08;100331.66;;;13.32;100.00
48790;BME280;41718;51.980;5.734;2023-05-09T18:24:09;100328.19;;;13.36;100.00
48790;BME280;41718;51.980;5.734;2023-05-09T18:29:11;100329.09;;;13.29;100.00
48790;BME280;41718;51.980;5.734;2023-05-09T18:34:12;100328.25;;;13.25;100.00
48790;BME280;41718;51.980;5.734;2023-05-09T18:39:14;100323.06;;;13.22;100.00
48790;BME280;41718;51.980;5.734;2023-05-09T18:44:15;100336.91;;;13.15;100.00
48790;BME280;41718;51.980;5.734;2023-05-09T18:49:19;100336.94;;;13.09;100.00
48790;BME280;41718;51.980;5.734;2023-05-09T18:54:27;100341.25;;;13.13;100.00
48790;BME280;41718;51.980;5.734;2023-05-09T18:59:33;100343.03;;;13.00;100.00
48790;BME280;41718;51.980;5.734;2023-05-09T19:04:38;100349.09;;;12.97;100.00
48790;BME280;41718;51.980;5.734;2023-05-09T19:09:40;100343.91;;;12.94;100.00
48790;BME280;41718;51.980;5.734;2023-05-09T19:14:43;100349.97;;;12.92;100.00
48790;BME280;41718;51.980;5.734;2023-05-09T19:19:48;100346.50;;;12.91;100.00
48790;BME280;41718;51.980;5.734;2023-05-09T19:24:57;100353.44;;;12.89;100.00
48790;BME280;41718;51.980;5.734;2023-05-09T19:30:02;100343.91;;;12.96;100.00
48790;BME280;41718;51.980;5.734;2023-05-09T19:35:05;100344.78;;;12.90;100.00
48790;BME280;41718;51.980;5.734;2023-05-09T19:40:07;100340.47;;;12.82;100.00
48790;BME280;41718;51.980;5.734;2023-05-09T19:45:09;100340.50;;;12.76;100.00
48790;BME280;41718;51.980;5.734;2023-05-09T19:50:10;100337.88;;;12.82;100.00
48790;BME280;41718;51.980;5.734;2023-05-09T19:55:13;100344.81;;;12.84;100.00
48790;BME280;41718;51.980;5.734;2023-05-09T20:00:15;100347.41;;;12.84;100.00
48790;BME280;41718;51.980;5.734;2023-05-09T20:05:17;100348.25;;;12.82;100.00
48790;BME280;41718;51.980;5.734;2023-05-09T20:10:19;100348.25;;;12.89;100.00
48790;BME280;41718;51.980;5.734;2023-05-09T20:15:22;100339.59;;;12.81;100.00
48790;BME280;41718;51.980;5.734;2023-05-09T20:20:25;100335.28;;;12.82;100.00
48790;BME280;41718;51.980;5.734;2023-05-09T20:25:28;100325.78;;;12.76;100.00
48790;BME280;41718;51.980;5.734;2023-05-09T20:30:30;100330.97;;;12.82;100.00
48790;BME280;41718;51.980;5.734;2023-05-09T20:35:33;100334.41;;;12.81;100.00
48790;BME280;41718;51.980;5.734;2023-05-09T20:40:39;100330.06;;;12.86;100.00
48790;BME280;41718;51.980;5.734;2023-05-09T20:45:44;100333.56;;;12.76;100.00
48790;BME280;41718;51.980;5.734;2023-05-09T20:50:51;100329.28;;;12.72;100.00
48790;BME280;41718;51.980;5.734;2023-05-09T20:55:52;100330.13;;;12.74;100.00
48790;BME280;41718;51.980;5.734;2023-05-09T21:00:56;100344.84;;;12.64;100.00
48790;BME280;41718;51.980;5.734;2023-05-09T21:05:57;100333.63;;;12.61;100.00
48790;BME280;41718;51.980;5.734;2023-05-09T21:11:02;100339.66;;;12.47;100.00
48790;BME280;41718;51.980;5.734;2023-05-09T21:16:03;100338.81;;;12.45;100.00
48790;BME280;41718;51.980;5.734;2023-05-09T21:21:07;100337.09;;;12.41;100.00
48790;BME280;41718;51.980;5.734;2023-05-09T21:26:09;100341.44;;;12.33;100.00
48790;BME280;41718;51.980;5.734;2023-05-09T21:31:10;100339.69;;;12.31;100.00
48790;BME280;41718;51.980;5.734;2023-05-09T21:36:12;100341.41;;;12.24;100.00
48790;BME280;41718;51.980;5.734;2023-05-09T21:41:15;100336.25;;;12.21;100.00
48790;BME280;41718;51.980;5.734;2023-05-09T21:46:19;100333.63;;;12.13;100.00
48790;BME280;41718;51.980;5.734;2023-05-09T21:51:22;100337.09;;;12.02;100.00
48790;BME280;41718;51.980;5.734;2023-05-09T21:56:25;100331.91;;;12.00;100.00
48790;BME280;41718;51.980;5.734;2023-05-09T22:01:48;100333.66;;;12.04;100.00
48790;BME280;41718;51.980;5.734;2023-05-09T22:06:50;100334.53;;;11.97;100.00
48790;BME280;41718;51.980;5.734;2023-05-09T22:11:51;100328.47;;;11.92;100.00
48790;BME280;41718;51.980;5.734;2023-05-09T22:16:53;100330.19;;;11.93;100.00
48790;BME280;41718;51.980;5.734;2023-05-09T22:21:57;100312.03;;;11.82;100.00
48790;BME280;41718;51.980;5.734;2023-05-09T22:27:00;100308.56;;;11.89;100.00
48790;BME280;41718;51.980;5.734;2023-05-09T22:32:06;100318.94;;;11.83;100.00
48790;BME280;41718;51.980;5.734;2023-05-09T22:37:10;100315.47;;;11.90;100.00
48790;BME280;41718;51.980;5.734;2023-05-09T22:42:12;100318.94;;;11.88;100.00
48790;BME280;41718;51.980;5.734;2023-05-09T22:47:25;100318.09;;;11.92;100.00
48790;BME280;41718;51.980;5.734;2023-05-09T22:52:30;100323.25;;;11.84;100.00
48790;BME280;41718;51.980;5.734;2023-05-09T22:57:34;100314.63;;;11.82;100.00
48790;BME280;41718;51.980;5.734;2023-05-09T23:02:36;100313.78;;;11.86;100.00
48790;BME280;41718;51.980;5.734;2023-05-09T23:07:44;100312.88;;;11.83;100.00
48790;BME280;41718;51.980;5.734;2023-05-09T23:12:54;100318.03;;;11.78;100.00
48790;BME280;41718;51.980;5.734;2023-05-09T23:17:56;100305.06;;;11.78;100.00
48790;BME280;41718;51.980;5.734;2023-05-09T23:22:58;100307.72;;;11.81;100.00
48790;BME280;41718;51.980;5.734;2023-05-09T23:28:05;100299.94;;;11.86;100.00
48790;BME280;41718;51.980;5.734;2023-05-09T23:33:13;100293.00;;;11.80;100.00
48790;BME280;41718;51.980;5.734;2023-05-09T23:38:17;100292.13;;;11.77;100.00
48790;BME280;41718;51.980;5.734;2023-05-09T23:43:22;100299.88;;;11.78;100.00
48790;BME280;41718;51.980;5.734;2023-05-09T23:48:24;100288.66;;;11.78;100.00
48790;BME280;41718;51.980;5.734;2023-05-09T23:53:27;100282.63;;;11.80;100.00
48790;BME280;41718;51.980;5.734;2023-05-09T23:58:31;100274.88;;;11.82;100.00
